createdAt,value
2016-06-16T00:00:16.146Z,20.11
2016-06-16T00:01:16.166Z,20.02
2016-06-16T00:02:16.200Z,20.08
2016-06-16T00:03:16.219Z,20.05
2016-06-16T00:04:16.237Z,20.01
2016-06-16T00:05:16.271Z,20.05
2016-06-16T00:06:16.290Z,20.02
2016-06-16T00:07:16.309Z,20.14
2016-06-16T00:08:16.343Z,20.1
2016-06-16T00:09:16.362Z,19.95
2016-06-16T00:10:16.240Z,19.98
2016-06-16T00:11:16.274Z,20.02
2016-06-16T00:12:16.480Z,19.91
2016-06-16T00:13:16.484Z,19.99
2016-06-16T00:14:16.486Z,19.94
2016-06-16T00:15:16.521Z,19.96
2016-06-16T00:16:16.540Z,19.96
2016-06-16T00:17:16.574Z,19.96
2016-06-16T00:18:16.592Z,20.05
2016-06-16T00:19:16.627Z,19.94
2016-06-16T00:20:16.646Z,19.96
2016-06-16T00:21:16.665Z,19.98
2016-06-16T00:22:16.699Z,20.14
2016-06-16T00:23:16.717Z,20.08
2016-06-16T00:24:16.736Z,20.18
2016-06-16T00:25:17.583Z,19.99
2016-06-16T00:26:17.211Z,20.05
2016-06-16T00:27:16.823Z,20.03
2016-06-16T00:28:16.842Z,20.05
2016-06-16T00:29:16.876Z,20.13
2016-06-16T00:30:16.911Z,20.06
2016-06-16T00:31:16.930Z,20.03
2016-06-16T00:32:16.949Z,20.08
2016-06-16T00:33:16.966Z,20.02
2016-06-16T00:34:17.001Z,19.94
2016-06-16T00:35:17.020Z,19.95
2016-06-16T00:36:17.054Z,19.88
2016-06-16T00:37:17.073Z,19.94
2016-06-16T00:38:17.092Z,19.98
2016-06-16T00:39:17.126Z,19.92
2016-06-16T00:40:17.160Z,19.92
2016-06-16T00:41:17.398Z,19.96
2016-06-16T00:42:17.057Z,19.96
2016-06-16T00:43:17.216Z,19.88
2016-06-16T00:44:17.251Z,20.05
2016-06-16T00:45:17.285Z,19.94
2016-06-16T00:46:17.319Z,19.99
2016-06-16T00:47:17.338Z,19.94
2016-06-16T00:48:17.357Z,19.88
2016-06-16T00:49:17.422Z,19.92
2016-06-16T00:50:17.394Z,19.92
2016-06-16T00:51:17.428Z,19.98
2016-06-16T00:52:17.447Z,19.88
2016-06-16T00:53:17.481Z,19.78
2016-06-16T00:54:17.500Z,19.74
2016-06-16T00:55:17.535Z,19.83
2016-06-16T00:56:17.397Z,19.84
2016-06-16T00:57:17.604Z,19.87
2016-06-16T00:58:17.607Z,19.87
2016-06-16T00:59:17.625Z,19.84
2016-06-16T01:00:17.643Z,19.83
2016-06-16T01:01:17.678Z,19.81
2016-06-16T01:02:17.712Z,19.84
2016-06-16T01:03:17.731Z,19.8
2016-06-16T01:04:17.750Z,19.83
2016-06-16T01:05:17.784Z,19.92
2016-06-16T01:06:17.803Z,19.8
2016-06-16T01:07:17.852Z,19.99
2016-06-16T01:08:17.856Z,19.71
2016-06-16T01:09:17.874Z,19.81
2016-06-16T01:10:17.816Z,19.95
2016-06-16T01:11:17.772Z,19.94
2016-06-16T01:12:17.947Z,19.87
2016-06-16T01:13:17.980Z,19.81
2016-06-16T01:14:18.062Z,19.84
2016-06-16T01:15:18.034Z,19.84
2016-06-16T01:16:18.052Z,19.76
2016-06-16T01:17:18.071Z,19.81
2016-06-16T01:18:18.105Z,19.87
2016-06-16T01:19:18.155Z,19.84
2016-06-16T01:20:18.159Z,19.74
2016-06-16T01:21:18.192Z,19.78
2016-06-16T01:22:18.211Z,19.87
2016-06-16T01:23:18.230Z,19.92
2016-06-16T01:24:18.248Z,19.87
2016-06-16T01:25:18.299Z,19.71
2016-06-16T01:26:18.349Z,19.8
2016-06-16T01:27:18.321Z,19.83
2016-06-16T01:28:18.354Z,19.78
2016-06-16T01:29:18.389Z,19.77
2016-06-16T01:30:18.408Z,19.74
2016-06-16T01:31:18.426Z,19.84
2016-06-16T01:32:18.461Z,19.76
2016-06-16T01:33:18.479Z,19.84
2016-06-16T01:34:18.514Z,19.76
2016-06-16T01:35:18.548Z,19.84
2016-06-16T01:36:18.551Z,19.8
2016-06-16T01:37:18.444Z,19.81
2016-06-16T01:38:18.605Z,19.77
2016-06-16T01:39:18.622Z,19.77
2016-06-16T01:40:18.657Z,19.77
2016-06-16T01:41:19.598Z,19.83
2016-06-16T01:42:18.710Z,19.76
2016-06-16T01:43:18.729Z,19.74
2016-06-16T01:44:18.763Z,19.71
2016-06-16T01:45:18.782Z,19.77
2016-06-16T01:46:18.801Z,19.74
2016-06-16T01:47:18.835Z,19.76
2016-06-16T01:48:18.853Z,19.73
2016-06-16T01:49:18.889Z,19.71
2016-06-16T01:50:18.906Z,19.8
2016-06-16T01:51:18.925Z,19.65
2016-06-16T01:52:18.960Z,19.69
2016-06-16T01:53:18.979Z,19.65
2016-06-16T01:54:19.012Z,19.68
2016-06-16T01:55:19.046Z,19.71
2016-06-16T01:56:19.066Z,19.61
2016-06-16T01:57:19.085Z,19.66
2016-06-16T01:58:19.134Z,19.68
2016-06-16T01:59:18.981Z,19.78
2016-06-16T02:00:19.156Z,19.69
2016-06-16T02:01:19.175Z,19.73
2016-06-16T02:02:19.226Z,19.69
2016-06-16T02:03:19.228Z,19.68
2016-06-16T02:04:19.263Z,19.66
2016-06-16T02:05:19.280Z,19.77
2016-06-16T02:06:19.300Z,19.71
2016-06-16T02:07:19.333Z,19.69
2016-06-16T02:08:19.369Z,19.71
2016-06-16T02:09:19.387Z,19.62
2016-06-16T02:10:19.421Z,19.68
2016-06-16T02:11:20.174Z,19.73
2016-06-16T02:12:19.459Z,19.74
2016-06-16T02:13:19.477Z,19.77
2016-06-16T02:14:19.496Z,19.83
2016-06-16T02:15:19.530Z,19.62
2016-06-16T02:16:19.565Z,19.73
2016-06-16T02:17:19.630Z,19.63
2016-06-16T02:18:19.602Z,19.71
2016-06-16T02:19:19.621Z,19.68
2016-06-16T02:20:19.656Z,19.68
2016-06-16T02:21:19.673Z,19.62
2016-06-16T02:22:19.708Z,19.66
2016-06-16T02:23:19.743Z,19.73
2016-06-16T02:24:19.761Z,19.63
2016-06-16T02:25:19.780Z,19.62
2016-06-16T02:26:20.252Z,19.62
2016-06-16T02:27:19.848Z,19.65
2016-06-16T02:28:19.868Z,19.61
2016-06-16T02:29:19.729Z,19.63
2016-06-16T02:30:19.904Z,19.65
2016-06-16T02:31:19.923Z,19.68
2016-06-16T02:32:19.974Z,19.63
2016-06-16T02:33:19.820Z,19.65
2016-06-16T02:34:20.011Z,19.62
2016-06-16T02:35:20.030Z,19.69
2016-06-16T02:36:20.048Z,19.39
2016-06-16T02:37:20.083Z,19.63
2016-06-16T02:38:20.101Z,19.63
2016-06-16T02:39:20.135Z,19.76
2016-06-16T02:40:20.154Z,19.65
2016-06-16T02:41:20.048Z,19.71
2016-06-16T02:42:20.207Z,19.66
2016-06-16T02:43:20.226Z,19.63
2016-06-16T02:44:20.261Z,19.66
2016-06-16T02:45:20.279Z,19.81
2016-06-16T02:46:20.313Z,19.71
2016-06-16T02:47:20.347Z,19.63
2016-06-16T02:48:20.351Z,19.68
2016-06-16T02:49:20.385Z,19.73
2016-06-16T02:50:20.403Z,19.62
2016-06-16T02:51:20.422Z,19.5
2016-06-16T02:52:20.457Z,19.61
2016-06-16T02:53:20.475Z,19.68
2016-06-16T02:54:20.510Z,19.62
2016-06-16T02:55:20.560Z,19.59
2016-06-16T02:56:20.422Z,19.54
2016-06-16T02:57:20.597Z,19.63
2016-06-16T02:58:20.601Z,19.51
2016-06-16T02:59:20.635Z,19.61
2016-06-16T03:00:20.654Z,19.63
2016-06-16T03:01:20.688Z,19.51
2016-06-16T03:02:20.706Z,19.62
2016-06-16T03:03:20.725Z,19.48
2016-06-16T03:04:20.744Z,19.55
2016-06-16T03:05:20.778Z,19.66
2016-06-16T03:06:20.797Z,19.59
2016-06-16T03:07:20.847Z,19.47
2016-06-16T03:08:20.849Z,19.63
2016-06-16T03:09:20.884Z,19.77
2016-06-16T03:10:20.902Z,19.71
2016-06-16T03:11:21.188Z,19.69
2016-06-16T03:12:20.956Z,19.74
2016-06-16T03:13:20.974Z,19.68
2016-06-16T03:14:20.992Z,19.66
2016-06-16T03:15:21.028Z,19.68
2016-06-16T03:16:21.046Z,19.63
2016-06-16T03:17:21.081Z,19.62
2016-06-16T03:18:21.099Z,19.61
2016-06-16T03:19:21.118Z,19.5
2016-06-16T03:20:21.152Z,19.48
2016-06-16T03:21:21.171Z,19.48
2016-06-16T03:22:21.205Z,19.47
2016-06-16T03:23:21.083Z,19.58
2016-06-16T03:24:21.259Z,19.54
2016-06-16T03:25:21.276Z,19.65
2016-06-16T03:26:22.592Z,19.48
2016-06-16T03:27:21.330Z,19.59
2016-06-16T03:28:21.349Z,19.51
2016-06-16T03:29:21.367Z,19.63
2016-06-16T03:30:21.417Z,19.63
2016-06-16T03:31:21.420Z,19.59
2016-06-16T03:32:21.455Z,19.62
2016-06-16T03:33:21.473Z,19.61
2016-06-16T03:34:21.508Z,19.68
2016-06-16T03:35:21.526Z,19.62
2016-06-16T03:36:21.561Z,19.63
2016-06-16T03:37:21.563Z,19.5
2016-06-16T03:38:21.598Z,19.55
2016-06-16T03:39:21.616Z,19.47
2016-06-16T03:40:21.651Z,19.44
2016-06-16T03:41:21.686Z,19.63
2016-06-16T03:42:21.719Z,19.77
2016-06-16T03:43:21.722Z,19.61
2016-06-16T03:44:21.773Z,19.68
2016-06-16T03:45:21.775Z,19.62
2016-06-16T03:46:21.795Z,19.65
2016-06-16T03:47:21.829Z,19.66
2016-06-16T03:48:21.847Z,19.59
2016-06-16T03:49:21.882Z,19.73
2016-06-16T03:50:21.901Z,19.73
2016-06-16T03:51:21.935Z,19.66
2016-06-16T03:52:21.953Z,19.65
2016-06-16T03:53:21.972Z,19.66
2016-06-16T03:54:21.991Z,19.66
2016-06-16T03:55:22.025Z,19.63
2016-06-16T03:56:22.060Z,19.62
2016-06-16T03:57:22.297Z,19.71
2016-06-16T03:58:22.097Z,19.61
2016-06-16T03:59:22.131Z,19.65
2016-06-16T04:00:22.150Z,19.59
2016-06-16T04:01:22.200Z,19.73
2016-06-16T04:02:22.203Z,19.78
2016-06-16T04:03:22.223Z,19.62
2016-06-16T04:04:22.240Z,19.62
2016-06-16T04:05:22.274Z,19.71
2016-06-16T04:06:22.309Z,19.61
2016-06-16T04:07:22.360Z,19.65
2016-06-16T04:08:22.205Z,19.69
2016-06-16T04:09:22.365Z,19.63
2016-06-16T04:10:22.384Z,19.68
2016-06-16T04:11:23.028Z,19.77
2016-06-16T04:12:22.296Z,19.83
2016-06-16T04:13:22.470Z,19.87
2016-06-16T04:14:22.506Z,19.77
2016-06-16T04:15:22.540Z,19.83
2016-06-16T04:16:22.562Z,19.83
2016-06-16T04:17:22.636Z,19.86
2016-06-16T04:18:22.709Z,19.86
2016-06-16T04:19:22.768Z,19.87
2016-06-16T04:20:22.827Z,19.76
2016-06-16T04:21:22.874Z,19.8
2016-06-16T04:22:22.922Z,19.71
2016-06-16T04:23:22.955Z,19.78
2016-06-16T04:24:22.989Z,19.74
2016-06-16T04:25:23.021Z,19.84
2016-06-16T04:26:23.847Z,19.81
2016-06-16T04:27:23.542Z,19.86
2016-06-16T04:28:23.128Z,19.92
2016-06-16T04:29:23.152Z,19.88
2016-06-16T04:30:23.035Z,19.94
2016-06-16T04:31:23.214Z,19.91
2016-06-16T04:32:23.094Z,19.87
2016-06-16T04:33:23.271Z,19.84
2016-06-16T04:34:23.291Z,19.92
2016-06-16T04:35:23.327Z,19.88
2016-06-16T04:36:23.347Z,19.94
2016-06-16T04:37:23.367Z,19.87
2016-06-16T04:38:23.402Z,19.92
2016-06-16T04:39:23.297Z,19.86
2016-06-16T04:40:23.441Z,19.99
2016-06-16T04:41:23.476Z,19.95
2016-06-16T04:42:23.917Z,20.06
2016-06-16T04:43:23.530Z,20.06
2016-06-16T04:44:23.580Z,20.05
2016-06-16T04:45:23.583Z,20.02
2016-06-16T04:46:23.602Z,20.14
2016-06-16T04:47:23.621Z,20.14
2016-06-16T04:48:23.656Z,20.14
2016-06-16T04:49:23.689Z,20.14
2016-06-16T04:50:23.693Z,20.18
2016-06-16T04:51:23.727Z,20.31
2016-06-16T04:52:23.777Z,20.21
2016-06-16T04:53:23.780Z,20.17
2016-06-16T04:54:23.799Z,20.18
2016-06-16T04:55:23.693Z,20.29
2016-06-16T04:56:24.555Z,20.31
2016-06-16T04:57:24.231Z,20.31
2016-06-16T04:58:23.905Z,20.35
2016-06-16T04:59:23.923Z,20.42
2016-06-16T05:00:23.958Z,20.38
2016-06-16T05:01:23.976Z,20.38
2016-06-16T05:02:24.026Z,20.43
2016-06-16T05:03:24.077Z,20.42
2016-06-16T05:04:24.049Z,20.42
2016-06-16T05:05:24.098Z,20.54
2016-06-16T05:06:24.102Z,20.59
2016-06-16T05:07:23.964Z,20.61
2016-06-16T05:08:24.186Z,20.64
2016-06-16T05:09:24.173Z,20.73
2016-06-16T05:10:24.207Z,20.67
2016-06-16T05:11:24.257Z,20.76
2016-06-16T05:12:24.292Z,20.7
2016-06-16T05:13:24.280Z,20.82
2016-06-16T05:14:24.314Z,20.85
2016-06-16T05:15:24.192Z,20.98
2016-06-16T05:16:24.366Z,21.24
2016-06-16T05:17:24.432Z,21.74
2016-06-16T05:18:24.404Z,22.21
2016-06-16T05:19:24.470Z,22.55
2016-06-16T05:20:24.457Z,22.51
2016-06-16T05:21:24.507Z,22.79
2016-06-16T05:22:24.510Z,23.17
2016-06-16T05:23:24.529Z,23.4
2016-06-16T05:24:24.563Z,23.7
2016-06-16T05:25:24.581Z,23.85
2016-06-16T05:26:24.867Z,23.84
2016-06-16T05:27:25.010Z,24.06
2016-06-16T05:28:24.670Z,24.13
2016-06-16T05:29:24.687Z,24.32
2016-06-16T05:30:24.721Z,24.53
2016-06-16T05:31:24.741Z,24.52
2016-06-16T05:32:24.775Z,24.46
2016-06-16T05:33:24.794Z,24.46
2016-06-16T05:34:24.828Z,24.35
2016-06-16T05:35:24.847Z,24.49
2016-06-16T05:36:24.897Z,24.83
2016-06-16T05:37:24.915Z,24.95
2016-06-16T05:38:24.934Z,25.03
2016-06-16T05:39:24.968Z,25.06
2016-06-16T05:40:24.987Z,25.2
2016-06-16T05:41:25.021Z,25.1
2016-06-16T05:42:25.056Z,25.15
2016-06-16T05:43:25.075Z,25.52
2016-06-16T05:44:24.953Z,25.97
2016-06-16T05:45:25.128Z,26.2
2016-06-16T05:46:25.146Z,26.5
2016-06-16T05:47:25.180Z,26.32
2016-06-16T05:48:25.215Z,26.45
2016-06-16T05:49:25.265Z,26.92
2016-06-16T05:50:25.268Z,27
2016-06-16T05:51:25.286Z,27.02
2016-06-16T05:52:25.321Z,26.39
2016-06-16T05:53:25.355Z,26.07
2016-06-16T05:54:25.375Z,26.09
2016-06-16T05:55:25.409Z,23.84
2016-06-16T05:56:25.443Z,22.6
2016-06-16T05:57:25.477Z,22.85
2016-06-16T05:58:25.512Z,23.42
2016-06-16T05:59:25.514Z,24.09
2016-06-16T06:00:25.532Z,24.16
2016-06-16T06:01:25.567Z,23.85
2016-06-16T06:02:25.586Z,23.94
2016-06-16T06:03:25.620Z,24.25
2016-06-16T06:04:25.639Z,24.88
2016-06-16T06:05:25.673Z,25.36
2016-06-16T06:06:25.692Z,25.54
2016-06-16T06:07:25.727Z,25.46
2016-06-16T06:08:25.746Z,25.5
2016-06-16T06:09:25.780Z,25.43
2016-06-16T06:10:25.674Z,25.51
2016-06-16T06:11:25.833Z,25.55
2016-06-16T06:12:25.850Z,25.64
2016-06-16T06:13:25.885Z,25.76
2016-06-16T06:14:25.920Z,25.72
2016-06-16T06:15:25.939Z,25.76
2016-06-16T06:16:25.817Z,25.62
2016-06-16T06:17:25.882Z,25.76
2016-06-16T06:18:26.026Z,25.77
2016-06-16T06:19:26.045Z,25.76
2016-06-16T06:20:26.079Z,25.87
2016-06-16T06:21:26.114Z,25.76
2016-06-16T06:22:26.163Z,25.88
2016-06-16T06:23:26.167Z,23.85
2016-06-16T06:24:26.184Z,21.38
2016-06-16T06:25:26.220Z,20.31
2016-06-16T06:26:26.098Z,20.32
2016-06-16T06:27:26.288Z,22.09
2016-06-16T06:28:26.135Z,23.02
2016-06-16T06:29:26.325Z,23.61
2016-06-16T06:30:26.344Z,23.94
2016-06-16T06:31:26.363Z,24.42
2016-06-16T06:32:26.397Z,24.68
2016-06-16T06:33:26.415Z,24.99
2016-06-16T06:34:26.451Z,25.25
2016-06-16T06:35:26.485Z,25.32
2016-06-16T06:36:26.504Z,25.35
2016-06-16T06:37:26.537Z,25.36
2016-06-16T06:38:26.555Z,25.36
2016-06-16T06:39:26.591Z,25.39
2016-06-16T06:40:26.625Z,25.43
2016-06-16T06:41:26.644Z,25.47
2016-06-16T06:42:26.678Z,25.42
2016-06-16T06:43:26.696Z,25.55
2016-06-16T06:44:26.731Z,25.57
2016-06-16T06:45:26.781Z,25.6
2016-06-16T06:46:26.784Z,25.79
2016-06-16T06:47:26.802Z,25.77
2016-06-16T06:48:26.837Z,25.92
2016-06-16T06:49:26.872Z,25.88
2016-06-16T06:50:26.890Z,26.13
2016-06-16T06:51:26.908Z,26.05
2016-06-16T06:52:26.959Z,26.07
2016-06-16T06:53:26.976Z,26.21
2016-06-16T06:54:27.012Z,26.15
2016-06-16T06:55:27.030Z,26.23
2016-06-16T06:56:27.065Z,26.44
2016-06-16T06:57:27.099Z,26.82
2016-06-16T06:58:27.133Z,26.6
2016-06-16T06:59:27.152Z,26.55
2016-06-16T07:00:27.170Z,26.44
2016-06-16T07:01:27.205Z,26.39
2016-06-16T07:02:27.240Z,26.29
2016-06-16T07:03:27.102Z,26.37
2016-06-16T07:04:27.292Z,26.65
2016-06-16T07:05:27.310Z,26.8
2016-06-16T07:06:27.346Z,26.88
2016-06-16T07:07:27.380Z,27.13
2016-06-16T07:08:27.398Z,26.99
2016-06-16T07:09:27.276Z,27.14
2016-06-16T07:10:27.467Z,27.02
2016-06-16T07:11:27.501Z,27.17
2016-06-16T07:12:27.395Z,27.37
2016-06-16T07:13:27.585Z,27.09
2016-06-16T07:14:27.588Z,27.02
2016-06-16T07:15:27.608Z,26.92
2016-06-16T07:16:27.642Z,26.99
2016-06-16T07:17:27.520Z,27.02
2016-06-16T07:18:27.694Z,27.27
2016-06-16T07:19:27.729Z,27.65
2016-06-16T07:20:27.748Z,27.78
2016-06-16T07:21:27.798Z,27.77
2016-06-16T07:22:27.816Z,27.51
2016-06-16T07:23:27.694Z,27.41
2016-06-16T07:24:27.870Z,27.29
2016-06-16T07:25:27.904Z,27.77
2016-06-16T07:26:27.782Z,28.04
2016-06-16T07:27:28.456Z,28.25
2016-06-16T07:28:27.991Z,27.96
2016-06-16T07:29:28.026Z,27.74
2016-06-16T07:30:28.044Z,28.21
2016-06-16T07:31:28.078Z,28.14
2016-06-16T07:32:40.847Z,27.79
2016-06-16T07:33:28.132Z,27.72
2016-06-16T07:34:28.166Z,27.9
2016-06-16T07:48:37.599Z,28.03
2016-06-16T07:48:41.271Z,29.09
2016-06-16T07:48:53.865Z,29.15
2016-06-16T07:49:53.852Z,29.15
2016-06-16T07:50:53.902Z,28.93
2016-06-16T07:51:53.999Z,28.93
2016-06-16T07:52:53.783Z,28.9
2016-06-16T07:53:53.973Z,29.09
2016-06-16T07:54:54.009Z,29.19
2016-06-16T07:55:54.027Z,29.23
2016-06-16T07:56:54.093Z,29.21
2016-06-16T07:57:53.954Z,29.14
2016-06-16T07:58:54.145Z,28.86
2016-06-16T07:59:54.149Z,28.67
2016-06-16T08:00:54.027Z,28.86
2016-06-16T08:01:54.217Z,28.86
2016-06-16T08:02:54.236Z,28.9
2016-06-16T08:03:54.270Z,28.95
2016-06-16T08:04:54.320Z,28.89
2016-06-16T08:05:54.338Z,28.71
2016-06-16T08:06:54.217Z,28.55
2016-06-16T08:07:54.392Z,28.68
2016-06-16T08:08:54.270Z,28.61
2016-06-16T08:09:54.461Z,28.59
2016-06-16T08:10:54.495Z,28.54
2016-06-16T08:11:54.544Z,28.4
2016-06-16T08:12:54.579Z,28.27
2016-06-16T08:13:54.582Z,28.39
2016-06-16T08:14:54.600Z,28.37
2016-06-16T08:15:54.666Z,28.49
2016-06-16T08:16:54.669Z,28.39
2016-06-16T08:17:55.000Z,28.36
2016-06-16T08:18:54.739Z,28.29
2016-06-16T08:19:54.772Z,28.34
2016-06-16T08:20:54.791Z,28.37
2016-06-16T08:21:54.826Z,28.19
2016-06-16T08:22:54.844Z,28.19
2016-06-16T08:23:54.723Z,28.3
2016-06-16T08:24:54.928Z,28.24
2016-06-16T08:25:54.946Z,28.3
2016-06-16T08:26:54.965Z,28.34
2016-06-16T08:27:55.000Z,28.29
2016-06-16T08:28:55.034Z,28.39
2016-06-16T08:29:55.069Z,28.24
2016-06-16T08:30:55.103Z,28.14
2016-06-16T08:31:55.122Z,28.03
2016-06-16T08:32:55.156Z,28.07
2016-06-16T08:33:55.190Z,27.94
2016-06-16T08:34:55.225Z,27.85
2016-06-16T08:35:55.088Z,27.92
2016-06-16T08:36:55.122Z,27.79
2016-06-16T08:37:55.296Z,27.93
2016-06-16T08:38:55.331Z,27.84
2016-06-16T08:39:55.209Z,27.78
2016-06-16T08:40:55.400Z,27.81
2016-06-16T08:41:55.449Z,27.66
2016-06-16T08:42:55.453Z,27.66
2016-06-16T08:43:55.519Z,27.62
2016-06-16T08:44:55.522Z,27.55
2016-06-16T08:45:55.400Z,27.51
2016-06-16T08:46:55.434Z,27.46
2016-06-16T08:47:55.452Z,27.51
2016-06-16T08:48:16.581Z,27.43
2016-06-16T08:48:29.393Z,27.37
2016-06-16T08:49:29.412Z,27.28
2016-06-16T08:50:29.432Z,27.32
2016-06-16T08:51:29.465Z,27.29
2016-06-16T08:52:29.483Z,27.25
2016-06-16T08:53:29.519Z,27.29
2016-06-16T08:54:29.397Z,27.18
2016-06-16T08:55:29.572Z,27.19
2016-06-16T08:56:29.620Z,27.29
2016-06-16T08:57:29.624Z,27.24
2016-06-16T08:58:29.501Z,27.31
2016-06-16T08:59:29.677Z,27.22
2016-06-16T09:00:29.727Z,27.17
2016-06-16T09:01:29.746Z,27.17
2016-06-16T09:02:29.624Z,27.19
2016-06-16T09:03:29.799Z,27
2016-06-16T09:04:29.677Z,27.09
2016-06-16T09:05:29.868Z,26.97
2016-06-16T09:06:29.917Z,27.04
2016-06-16T09:07:29.936Z,26.99
2016-06-16T09:08:29.970Z,27
2016-06-16T09:09:29.990Z,26.84
2016-06-16T09:10:30.024Z,26.85
2016-06-16T09:11:29.746Z,26.82
2016-06-16T09:12:30.076Z,26.85
2016-06-16T09:13:30.127Z,26.84
2016-06-16T09:14:30.130Z,26.8
2016-06-16T09:15:30.164Z,26.73
2016-06-16T09:16:30.198Z,26.81
2016-06-16T09:17:30.232Z,26.65
2016-06-16T09:18:30.110Z,26.73
2016-06-16T09:19:30.130Z,26.73
2016-06-16T09:20:30.163Z,26.39
2016-06-16T09:21:30.339Z,26.45
2016-06-16T09:22:30.216Z,26.48
2016-06-16T09:23:30.282Z,26.55
2016-06-16T09:24:30.426Z,26.57
2016-06-16T09:25:30.304Z,26.69
2016-06-16T09:26:30.495Z,26.66
2016-06-16T09:27:30.513Z,26.63
2016-06-16T09:28:30.407Z,26.67
2016-06-16T09:29:30.597Z,26.62
2016-06-16T09:30:30.616Z,26.66
2016-06-16T09:31:30.650Z,26.6
2016-06-16T09:32:30.685Z,26.63
2016-06-16T09:33:30.548Z,26.65
2016-06-16T09:34:30.737Z,26.65
2016-06-16T09:35:30.616Z,26.67
2016-06-16T09:36:30.635Z,26.62
2016-06-16T09:37:30.669Z,26.62
2016-06-16T09:38:30.859Z,26.58
2016-06-16T09:39:30.722Z,26.66
2016-06-16T09:40:30.913Z,26.8
2016-06-16T09:41:30.931Z,26.72
2016-06-16T09:42:30.966Z,26.69
2016-06-16T09:43:31.015Z,26.76
2016-06-16T09:44:31.050Z,26.8
2016-06-16T09:45:31.271Z,26.75
2016-06-16T09:46:31.088Z,26.8
2016-06-16T09:47:31.121Z,26.77
2016-06-16T09:48:31.155Z,26.77
2016-06-16T09:49:31.175Z,26.87
2016-06-16T09:50:31.068Z,26.82
2016-06-16T09:51:31.259Z,26.95
2016-06-16T09:52:31.278Z,26.94
2016-06-16T09:53:31.312Z,26.88
2016-06-16T09:54:31.423Z,26.81
2016-06-16T09:55:31.365Z,26.81
2016-06-16T09:56:31.399Z,26.76
2016-06-16T09:57:31.418Z,26.7
2016-06-16T09:58:31.452Z,26.75
2016-06-16T09:59:31.330Z,26.65
2016-06-16T10:00:31.364Z,26.66
2016-06-16T10:01:31.539Z,26.66
2016-06-16T10:02:31.590Z,26.69
2016-06-16T10:03:31.609Z,26.62
2016-06-16T10:04:31.862Z,26.6
2016-06-16T10:05:31.771Z,26.7
2016-06-16T10:06:31.680Z,26.69
2016-06-16T10:07:31.557Z,26.62
2016-06-16T10:08:34.217Z,26.52
2016-06-16T10:09:31.986Z,26.69
2016-06-16T10:10:31.645Z,26.66
2016-06-16T10:11:31.680Z,26.63
2016-06-16T10:12:31.558Z,26.73
2016-06-16T10:13:31.904Z,26.55
2016-06-16T10:14:31.940Z,26.54
2016-06-16T10:15:31.958Z,26.54
2016-06-16T10:16:31.679Z,26.54
2016-06-16T10:17:32.027Z,26.55
2016-06-16T10:18:32.044Z,26.62
2016-06-16T10:19:32.064Z,26.6
2016-06-16T10:20:32.098Z,26.54
2016-06-16T10:21:32.132Z,26.52
2016-06-16T10:22:32.167Z,26.54
2016-06-16T10:23:32.201Z,26.48
2016-06-16T10:24:32.079Z,26.55
2016-06-16T10:25:32.269Z,26.44
2016-06-16T10:26:32.304Z,26.48
2016-06-16T10:27:32.308Z,26.39
2016-06-16T10:28:32.341Z,26.37
2016-06-16T10:29:32.376Z,26.32
2016-06-16T10:30:32.410Z,26.28
2016-06-16T10:31:32.429Z,26.28
2016-06-16T10:32:32.463Z,26.15
2016-06-16T10:33:32.498Z,26.17
2016-06-16T10:34:32.515Z,26.07
2016-06-16T10:35:32.550Z,26.06
2016-06-16T10:36:32.585Z,26.09
2016-06-16T10:37:32.619Z,26.02
2016-06-16T10:38:32.638Z,26.06
2016-06-16T10:39:32.672Z,25.95
2016-06-16T10:40:32.707Z,25.97
2016-06-16T10:41:32.568Z,25.95
2016-06-16T10:42:32.759Z,25.95
2016-06-16T10:43:32.793Z,25.95
2016-06-16T10:44:32.688Z,25.91
2016-06-16T10:45:32.910Z,25.8
2016-06-16T10:46:32.725Z,25.95
2016-06-16T10:47:32.916Z,25.9
2016-06-16T10:48:32.934Z,25.79
2016-06-16T10:49:32.968Z,25.82
2016-06-16T10:50:33.003Z,25.77
2016-06-16T10:51:33.021Z,25.92
2016-06-16T10:52:33.102Z,25.82
2016-06-16T10:53:33.090Z,25.79
2016-06-16T10:54:33.141Z,25.85
2016-06-16T10:55:32.986Z,25.87
2016-06-16T10:56:33.178Z,25.83
2016-06-16T10:57:33.228Z,25.72
2016-06-16T10:58:33.231Z,25.65
2016-06-16T10:59:33.280Z,25.57
2016-06-16T11:00:33.315Z,25.54
2016-06-16T11:01:33.318Z,25.6
2016-06-16T11:02:33.212Z,25.54
2016-06-16T11:03:33.403Z,25.55
2016-06-16T11:04:33.264Z,25.6
2016-06-16T11:07:48.649Z,25.58
2016-06-16T11:09:39.186Z,25.57
2016-06-16T11:09:51.765Z,25.58
2016-06-16T11:10:51.799Z,25.61
2016-06-16T11:11:51.817Z,25.57
2016-06-16T11:13:36.715Z,25.5
2016-06-16T11:13:51.918Z,25.5
2016-06-16T11:14:51.921Z,25.47
2016-06-16T11:15:51.924Z,25.43
2016-06-16T11:16:51.989Z,25.47
2016-06-16T11:17:51.992Z,25.4
2016-06-16T11:18:52.026Z,25.24
2016-06-16T11:19:52.045Z,25.36
2016-06-16T11:20:52.080Z,25.55
2016-06-16T11:21:52.115Z,25.46
2016-06-16T11:22:51.993Z,25.57
2016-06-16T11:23:52.167Z,25.62
2016-06-16T11:24:52.030Z,25.64
2016-06-16T11:25:52.220Z,25.72
2016-06-16T11:26:52.238Z,25.77
2016-06-16T11:27:52.273Z,25.76
2016-06-16T11:28:52.339Z,25.76
2016-06-16T11:29:52.357Z,25.65
2016-06-16T11:30:52.376Z,25.75
2016-06-16T11:31:52.395Z,25.83
2016-06-16T11:32:52.413Z,25.82
2016-06-16T11:33:52.464Z,25.92
2016-06-16T11:34:52.497Z,25.9
2016-06-16T11:35:52.517Z,25.32
2016-06-16T11:36:52.536Z,25.4
2016-06-16T11:37:52.569Z,25.62
2016-06-16T11:38:52.603Z,25.72
2016-06-16T11:39:52.623Z,25.75
2016-06-16T11:40:52.657Z,25.8
2016-06-16T11:41:52.691Z,25.79
2016-06-16T11:42:52.741Z,25.67
2016-06-16T11:43:52.760Z,25.75
2016-06-16T11:44:52.794Z,25.77
2016-06-16T11:45:52.812Z,25.73
2016-06-16T11:46:52.691Z,25.67
2016-06-16T11:47:52.865Z,25.75
2016-06-16T11:48:52.884Z,25.72
2016-06-16T11:49:52.762Z,25.65
2016-06-16T11:50:52.952Z,25.64
2016-06-16T11:51:53.035Z,25.75
2016-06-16T11:52:53.006Z,25.8
2016-06-16T11:53:53.041Z,25.08
2016-06-16T11:54:53.059Z,24.25
2016-06-16T11:55:53.093Z,24.27
2016-06-16T11:56:52.971Z,24.85
2016-06-16T11:57:52.990Z,25.32
2016-06-16T11:58:53.182Z,25.52
2016-06-16T11:59:53.200Z,25.77
2016-06-16T12:00:53.233Z,25.9
2016-06-16T12:01:53.269Z,25.99
2016-06-16T12:02:53.287Z,25.91
2016-06-16T12:03:53.180Z,25.97
2016-06-16T12:04:53.184Z,25.94
2016-06-16T12:05:53.218Z,25.88
2016-06-16T12:06:53.393Z,25.88
2016-06-16T12:07:53.474Z,25.94
2016-06-16T12:08:53.462Z,25.9
2016-06-16T12:09:53.355Z,25.82
2016-06-16T12:10:53.530Z,25.83
2016-06-16T12:11:53.549Z,25.65
2016-06-16T12:12:53.567Z,25.61
2016-06-16T12:13:53.445Z,25.57
2016-06-16T12:14:53.481Z,25.54
2016-06-16T12:15:53.671Z,25.57
2016-06-16T12:16:53.548Z,25.5
2016-06-16T12:17:53.724Z,25.45
2016-06-16T12:18:53.758Z,25.46
2016-06-16T12:19:53.636Z,25.51
2016-06-16T12:20:53.811Z,25.46
2016-06-16T12:21:53.689Z,25.42
2016-06-16T12:22:53.880Z,25.36
2016-06-16T12:23:53.898Z,25.4
2016-06-16T12:24:53.949Z,25.4
2016-06-16T12:25:53.967Z,25.39
2016-06-16T12:26:53.985Z,25.3
2016-06-16T12:27:54.020Z,25.33
2016-06-16T12:28:54.055Z,25.38
2016-06-16T12:29:54.089Z,25.35
2016-06-16T12:30:54.139Z,25.38
2016-06-16T12:31:54.142Z,25.35
2016-06-16T12:32:54.004Z,25.3
2016-06-16T12:33:54.039Z,25.27
2016-06-16T12:34:54.245Z,25.28
2016-06-16T12:35:54.107Z,25.25
2016-06-16T12:36:54.173Z,25.1
2016-06-16T12:37:54.333Z,25.18
2016-06-16T12:38:54.180Z,25.18
2016-06-16T12:39:54.213Z,25.1
2016-06-16T12:40:54.248Z,25.13
2016-06-16T12:41:54.438Z,25.13
2016-06-16T12:42:54.456Z,25.03
2016-06-16T12:43:54.491Z,25.06
2016-06-16T12:44:57.556Z,25.08
2016-06-16T12:45:54.544Z,25.02
2016-06-16T12:46:54.907Z,25
2016-06-16T12:47:54.613Z,25.02
2016-06-16T12:48:54.491Z,24.93
2016-06-16T12:49:54.509Z,24.96
2016-06-16T12:50:54.747Z,24.88
2016-06-16T12:51:54.735Z,24.85
2016-06-16T12:52:54.785Z,24.84
2016-06-16T12:58:56.069Z,24.8
2016-06-16T12:59:56.072Z,24.76
2016-06-16T13:00:56.137Z,24.83
2016-06-16T13:01:56.141Z,24.87
2016-06-16T13:02:56.175Z,24.87
2016-06-16T13:03:56.210Z,24.9
2016-06-16T13:04:56.228Z,24.85
2016-06-16T13:05:56.261Z,24.85
2016-06-16T13:06:56.281Z,24.83
2016-06-16T13:07:56.315Z,24.91
2016-06-16T13:08:56.350Z,24.98
2016-06-16T13:09:56.368Z,25
2016-06-16T13:10:56.403Z,25
2016-06-16T13:11:56.422Z,25.05
2016-06-16T13:12:56.456Z,25.13